Time;durP1;ratioP1;P1;durP2;ratioP2;P2;SDS_P1;SDS_P2;PMS_P1;PMS_P2;Temp;Humidity;BMP_temperature;BMP_pressure;BME280_temperature;BME280_humidity;BME280_pressure;Samples;Min_cycle;Max_cycle;Signal;HPM_P1;HPM_P2
2022/12/01 00:00:05;;;;;;;;;;;17.40;45.60;;;;;;8336356;28;20388;-46
2022/12/01 00:04:05;;;;;;;;;;;17.50;45.70;;;;;;8335477;28;19972;-46
2022/12/01 00:08:06;;;;;;;;;;;17.40;45.60;;;;;;8342264;28;20290;-46
2022/12/01 00:12:07;;;;;;;;;;;17.50;45.60;;;;;;8335953;28;20378;-46
2022/12/01 00:16:08;;;;;;;;;;;17.40;45.60;;;;;;8335201;28;19967;-45
2022/12/01 00:20:09;;;;;;;;;;;17.40;45.60;;;;;;8336176;28;19974;-45
2022/12/01 00:24:10;;;;;;;;;;;17.50;45.60;;;;;;8335269;28;19975;-45
2022/12/01 00:28:11;;;;;;;;;;;17.40;45.60;;;;;;8334823;28;19924;-45
2022/12/01 00:32:11;;;;;;;;;;;17.40;45.60;;;;;;8335190;28;20286;-45
2022/12/01 00:36:12;;;;;;;;;;;17.40;45.60;;;;;;8335033;28;19920;-45
2022/12/01 00:40:13;;;;;;;;;;;17.40;45.60;;;;;;8334674;28;20321;-45
2022/12/01 00:44:13;;;;;;;;;;;17.40;45.60;;;;;;8334937;28;19921;-46
2022/12/01 00:48:14;;;;;;;;;;;17.40;45.60;;;;;;8334623;28;19917;-46
2022/12/01 00:52:15;;;;;;;;;;;17.40;45.60;;;;;;8334412;28;19922;-46
2022/12/01 00:56:15;;;;;;;;;;;17.40;45.50;;;;;;8334639;28;19975;-46
2022/12/01 01:00:16;;;;;;;;;;;17.40;45.60;;;;;;8334525;28;19913;-44
2022/12/01 01:04:16;;;;;;;;;;;17.40;45.60;;;;;;8349848;28;19932;-45
2022/12/01 01:08:16;;;;;;;;;;;17.40;45.50;;;;;;8348148;28;19925;-44
2022/12/01 01:12:17;;;;;;;;;;;17.40;45.50;;;;;;8334051;28;19917;-46
2022/12/01 01:16:19;;;;;;;;;;;17.40;45.60;;;;;;8333373;28;20294;-46
2022/12/01 01:20:20;;;;;;;;;;;17.40;45.50;;;;;;8333999;28;19913;-44
2022/12/01 01:24:20;;;;;;;;;;;17.40;45.50;;;;;;8333585;28;19932;-45
2022/12/01 01:28:21;;;;;;;;;;;17.40;45.50;;;;;;8333564;28;20366;-45
2022/12/01 01:32:21;;;;;;;;;;;17.40;45.60;;;;;;8333599;28;19917;-45
2022/12/01 01:36:22;;;;;;;;;;;17.40;45.60;;;;;;8333225;28;19913;-45
2022/12/01 01:40:22;;;;;;;;;;;17.40;45.60;;;;;;8332954;28;19950;-45
2022/12/01 01:44:41;;;;;;;;;;;17.40;45.50;;;;;;8332959;28;19932;-45
2022/12/01 01:48:53;;;;;;;;;;;17.40;45.50;;;;;;8332552;28;20020;-45
2022/12/01 01:52:58;;;;;;;;;;;17.40;45.50;;;;;;8332932;28;19939;-45
2022/12/01 01:56:59;;;;;;;;;;;17.40;45.50;;;;;;8332693;28;19948;-45
2022/12/01 02:01:00;;;;;;;;;;;17.40;45.50;;;;;;8332312;28;19913;-45
2022/12/01 02:05:01;;;;;;;;;;;17.40;45.50;;;;;;8305271;28;19926;-44
2022/12/01 02:09:01;;;;;;;;;;;17.40;45.50;;;;;;8320299;28;19944;-44
2022/12/01 02:13:15;;;;;;;;;;;17.40;45.50;;;;;;8331676;28;19918;-44
2022/12/01 02:17:29;;;;;;;;;;;17.40;45.50;;;;;;8332187;28;19917;-44
2022/12/01 02:21:29;;;;;;;;;;;17.40;45.40;;;;;;8332035;28;19914;-45
2022/12/01 02:25:36;;;;;;;;;;;17.40;45.50;;;;;;8331181;28;20002;-44
2022/12/01 02:29:42;;;;;;;;;;;17.40;45.50;;;;;;8331568;28;20386;-46
2022/12/01 02:33:51;;;;;;;;;;;17.40;46.00;;;;;;8331122;28;19917;-46
2022/12/01 02:38:09;;;;;;;;;;;17.40;45.40;;;;;;8331441;28;19917;-45
2022/12/01 02:42:10;;;;;;;;;;;17.40;45.40;;;;;;8331386;28;20371;-45
2022/12/01 02:46:10;;;;;;;;;;;17.40;45.30;;;;;;8330811;28;19921;-45
2022/12/01 02:50:11;;;;;;;;;;;17.40;45.50;;;;;;8330978;28;19924;-45
2022/12/01 02:54:13;;;;;;;;;;;17.40;45.40;;;;;;8330907;28;19943;-45
2022/12/01 02:58:14;;;;;;;;;;;17.40;45.40;;;;;;8330420;28;19958;-45
2022/12/01 03:02:40;;;;;;;;;;;17.40;45.40;;;;;;8330900;28;19917;-45
2022/12/01 03:06:50;;;;;;;;;;;17.40;45.40;;;;;;8347701;28;19966;-44
2022/12/01 03:10:52;;;;;;;;;;;17.40;45.40;;;;;;8331117;28;19952;-46
2022/12/01 03:15:06;;;;;;;;;;;17.40;45.50;;;;;;8330459;28;20328;-46
2022/12/01 03:19:15;;;;;;;;;;;17.40;45.40;;;;;;8329975;28;19917;-46
2022/12/01 03:23:22;;;;;;;;;;;17.40;45.40;;;;;;8330274;28;19963;-45
2022/12/01 03:27:25;;;;;;;;;;;17.40;45.30;;;;;;8329969;28;19955;-45
2022/12/01 03:31:31;;;;;;;;;;;17.40;45.40;;;;;;8333453;28;20426;-46
2022/12/01 03:35:35;;;;;;;;;;;17.40;45.40;;;;;;8340966;28;19952;-46
2022/12/01 03:39:37;;;;;;;;;;;17.40;45.40;;;;;;8340624;28;20378;-46
2022/12/01 03:43:40;;;;;;;;;;;17.40;45.90;;;;;;8341279;28;20510;-46
2022/12/01 03:47:40;;;;;;;;;;;17.40;45.30;;;;;;8340585;28;19929;-46
2022/12/01 03:51:49;;;;;;;;;;;17.40;45.30;;;;;;8340486;28;20293;-44
2022/12/01 03:55:52;;;;;;;;;;;17.40;45.40;;;;;;8341018;28;20294;-45
2022/12/01 03:59:53;;;;;;;;;;;17.40;45.30;;;;;;8340644;28;19923;-45
2022/12/01 04:03:53;;;;;;;;;;;17.40;45.30;;;;;;8340149;28;19924;-45
2022/12/01 04:07:54;;;;;;;;;;;17.40;45.40;;;;;;8340324;28;20008;-46
2022/12/01 04:16:13;;;;;;;;;;;17.40;45.40;;;;;;8340757;28;19947;-45
2022/12/01 04:20:16;;;;;;;;;;;17.40;45.40;;;;;;8339501;28;22394;-44
2022/12/01 04:24:17;;;;;;;;;;;17.40;45.40;;;;;;8340199;28;20374;-44
2022/12/01 04:28:17;;;;;;;;;;;17.40;45.40;;;;;;8339725;28;19917;-44
2022/12/01 04:32:17;;;;;;;;;;;17.40;45.40;;;;;;8340352;28;19948;-44
2022/12/01 04:36:18;;;;;;;;;;;17.40;45.40;;;;;;8339964;28;19921;-44
2022/12/01 04:40:20;;;;;;;;;;;17.40;45.40;;;;;;8339427;28;19928;-45
2022/12/01 04:44:20;;;;;;;;;;;17.40;45.30;;;;;;8335146;28;20393;-45
2022/12/01 04:48:21;;;;;;;;;;;17.40;45.30;;;;;;8334592;28;19920;-45
2022/12/01 04:52:21;;;;;;;;;;;17.40;45.30;;;;;;8334875;28;20367;-44
2022/12/01 04:56:22;;;;;;;;;;;17.50;45.40;;;;;;8334472;28;19924;-44
2022/12/01 05:00:22;;;;;;;;;;;17.50;45.30;;;;;;8334487;28;19948;-44
2022/12/01 05:04:23;;;;;;;;;;;17.50;45.20;;;;;;8333766;28;19921;-44
2022/12/01 05:08:23;;;;;;;;;;;17.50;45.20;;;;;;8334414;28;19921;-44
2022/12/01 05:12:24;;;;;;;;;;;17.50;45.30;;;;;;8332985;28;19920;-44
2022/12/01 05:16:25;;;;;;;;;;;17.50;45.30;;;;;;8333587;28;20378;-44
2022/12/01 05:24:45;;;;;;;;;;;17.50;45.20;;;;;;8335471;28;20059;-44
2022/12/01 05:28:45;;;;;;;;;;;17.50;45.30;;;;;;8333904;28;19918;-45
2022/12/01 05:32:46;;;;;;;;;;;17.50;45.20;;;;;;8333728;28;20000;-45
2022/12/01 05:36:46;;;;;;;;;;;17.50;45.20;;;;;;8332709;28;20042;-45
2022/12/01 05:40:53;;;;;;;;;;;17.50;45.10;;;;;;8333384;28;20323;-45
2022/12/01 05:44:54;;;;;;;;;;;17.40;45.10;;;;;;8332833;28;19925;-46
2022/12/01 05:48:54;;;;;;;;;;;17.40;45.20;;;;;;8332706;28;20294;-45
2022/12/01 05:52:54;;;;;;;;;;;17.40;45.30;;;;;;8332895;28;19920;-48
2022/12/01 05:56:55;;;;;;;;;;;17.40;45.20;;;;;;8332356;28;19971;-45
2022/12/01 06:00:55;;;;;;;;;;;17.40;45.20;;;;;;8331944;28;19970;-46
2022/12/01 06:04:56;;;;;;;;;;;17.40;45.20;;;;;;8332252;28;20098;-45
2022/12/01 06:08:56;;;;;;;;;;;17.40;45.20;;;;;;8332352;28;19925;-46
2022/12/01 06:12:57;;;;;;;;;;;17.40;45.20;;;;;;8331918;28;19929;-45
2022/12/01 06:16:57;;;;;;;;;;;17.30;45.30;;;;;;8332269;28;19925;-45
2022/12/01 06:20:58;;;;;;;;;;;17.30;45.20;;;;;;8331659;28;20016;-46
2022/12/01 06:24:58;;;;;;;;;;;17.30;45.30;;;;;;8331259;28;19948;-45
2022/12/01 06:28:59;;;;;;;;;;;17.30;45.30;;;;;;8331605;28;19928;-45
2022/12/01 06:32:59;;;;;;;;;;;17.30;45.20;;;;;;8331736;28;19920;-45
2022/12/01 06:36:59;;;;;;;;;;;17.30;45.30;;;;;;8330818;28;19917;-48
2022/12/01 06:41:00;;;;;;;;;;;17.30;45.30;;;;;;8331527;28;19955;-45
2022/12/01 06:45:01;;;;;;;;;;;17.30;45.30;;;;;;8331114;28;20012;-46
2022/12/01 06:49:02;;;;;;;;;;;17.30;45.30;;;;;;8330583;28;20332;-45
2022/12/01 06:53:02;;;;;;;;;;;17.30;45.30;;;;;;8331176;28;19913;-45
2022/12/01 06:57:03;;;;;;;;;;;17.20;45.30;;;;;;8330680;28;19925;-46
2022/12/01 07:01:08;;;;;;;;;;;17.20;45.40;;;;;;8330225;28;19917;-44
2022/12/01 07:05:09;;;;;;;;;;;17.20;45.40;;;;;;8330349;28;20334;-47
2022/12/01 07:09:09;;;;;;;;;;;17.20;45.40;;;;;;8330255;28;19968;-44
2022/12/01 07:13:09;;;;;;;;;;;17.20;45.30;;;;;;8330113;28;19920;-45
2022/12/01 07:17:10;;;;;;;;;;;17.30;45.30;;;;;;8330148;28;19940;-45
2022/12/01 07:21:11;;;;;;;;;;;17.30;45.30;;;;;;8330167;28;20435;-45
2022/12/01 07:25:12;;;;;;;;;;;17.30;45.20;;;;;;8329640;28;19925;-45
2022/12/01 07:29:12;;;;;;;;;;;17.30;45.30;;;;;;8330196;28;19978;-45
2022/12/01 07:33:13;;;;;;;;;;;17.30;45.30;;;;;;8330338;28;19940;-44
2022/12/01 07:37:13;;;;;;;;;;;17.40;45.30;;;;;;8329473;28;20012;-45
2022/12/01 07:41:15;;;;;;;;;;;17.40;45.10;;;;;;8330144;28;19924;-46
2022/12/01 07:45:15;;;;;;;;;;;17.40;45.10;;;;;;8329724;28;19933;-45
2022/12/01 07:49:16;;;;;;;;;;;17.40;45.10;;;;;;8329592;28;19921;-46
2022/12/01 07:53:16;;;;;;;;;;;17.40;45.10;;;;;;8329968;28;19968;-44
2022/12/01 07:57:18;;;;;;;;;;;17.40;45.10;;;;;;8329710;28;19921;-45
2022/12/01 08:01:20;;;;;;;;;;;17.40;45.10;;;;;;8329219;28;19921;-46
2022/12/01 08:05:21;;;;;;;;;;;17.40;45.00;;;;;;8329885;28;20008;-46
2022/12/01 08:09:21;;;;;;;;;;;17.50;45.10;;;;;;8328635;28;19925;-46
2022/12/01 08:13:23;;;;;;;;;;;17.40;45.00;;;;;;8329293;28;19920;-44
2022/12/01 08:17:23;;;;;;;;;;;17.50;45.00;;;;;;8331040;28;19917;-46
2022/12/01 08:21:24;;;;;;;;;;;17.40;45.00;;;;;;8335661;28;19963;-45
2022/12/01 08:25:24;;;;;;;;;;;17.40;45.00;;;;;;8335001;28;20448;-44
2022/12/01 08:29:25;;;;;;;;;;;17.40;45.00;;;;;;8335295;28;19924;-46
2022/12/01 08:33:27;;;;;;;;;;;17.40;45.10;;;;;;8335663;28;19920;-44
2022/12/01 08:37:27;;;;;;;;;;;17.40;45.00;;;;;;8334716;28;20316;-47
2022/12/01 08:41:30;;;;;;;;;;;17.40;45.00;;;;;;8334976;28;19925;-44
2022/12/01 08:45:30;;;;;;;;;;;17.40;45.10;;;;;;8334621;28;19925;-44
2022/12/01 08:49:31;;;;;;;;;;;17.40;45.10;;;;;;8334338;28;20487;-44
2022/12/01 08:53:32;;;;;;;;;;;17.40;45.10;;;;;;8334867;28;19952;-44
2022/12/01 08:57:32;;;;;;;;;;;17.40;45.10;;;;;;8334451;28;20247;-47
2022/12/01 09:01:33;;;;;;;;;;;17.30;45.40;;;;;;8334047;28;19949;-45
2022/12/01 09:05:34;;;;;;;;;;;17.40;45.20;;;;;;8334297;28;19964;-45
2022/12/01 09:09:35;;;;;;;;;;;17.30;45.10;;;;;;8333616;28;19968;-43
2022/12/01 09:13:36;;;;;;;;;;;17.30;45.10;;;;;;8334319;28;19914;-46
2022/12/01 09:17:36;;;;;;;;;;;17.30;45.10;;;;;;8333875;28;20003;-44
2022/12/01 09:21:37;;;;;;;;;;;17.40;45.20;;;;;;8333315;28;19935;-45
2022/12/01 09:25:37;;;;;;;;;;;17.40;45.20;;;;;;8333876;28;20437;-44
2022/12/01 09:29:37;;;;;;;;;;;17.40;45.10;;;;;;8332940;28;19913;-45
2022/12/01 09:33:38;;;;;;;;;;;17.30;45.10;;;;;;8333095;28;20016;-46
2022/12/01 09:37:39;;;;;;;;;;;17.30;45.10;;;;;;8333567;28;19984;-45
2022/12/01 09:41:58;;;;;;;;;;;17.30;45.10;;;;;;8350973;28;19988;-45
2022/12/01 09:46:01;;;;;;;;;;;17.30;45.20;;;;;;8365406;28;19925;-45
2022/12/01 09:50:04;;;;;;;;;;;17.30;45.20;;;;;;8365809;28;20255;-44
2022/12/01 09:54:05;;;;;;;;;;;17.30;45.20;;;;;;8366274;28;20285;-44
2022/12/01 09:58:13;;;;;;;;;;;17.30;45.10;;;;;;8365144;28;19917;-45
2022/12/01 10:02:23;;;;;;;;;;;17.30;45.10;;;;;;8365484;28;19963;-44
2022/12/01 10:06:28;;;;;;;;;;;17.30;45.10;;;;;;8365211;28;19928;-46
2022/12/01 10:10:45;;;;;;;;;;;17.30;45.00;;;;;;8365350;28;19927;-45
2022/12/01 10:14:46;;;;;;;;;;;17.30;45.00;;;;;;8365426;28;19913;-44
2022/12/01 10:18:50;;;;;;;;;;;17.40;45.10;;;;;;8365031;28;19999;-45
2022/12/01 10:22:50;;;;;;;;;;;17.40;45.00;;;;;;8364971;28;19921;-47
2022/12/01 10:27:00;;;;;;;;;;;17.40;45.00;;;;;;8364598;28;19931;-45
2022/12/01 10:31:08;;;;;;;;;;;17.50;45.00;;;;;;8364125;28;19916;-45
2022/12/01 10:35:11;;;;;;;;;;;17.50;44.90;;;;;;8364541;28;19913;-45
2022/12/01 10:39:15;;;;;;;;;;;17.50;44.90;;;;;;8364720;28;20348;-45
2022/12/01 10:43:15;;;;;;;;;;;17.50;44.90;;;;;;8362843;28;20360;-47
2022/12/01 10:47:21;;;;;;;;;;;17.50;44.80;;;;;;8364367;28;19925;-45
2022/12/01 10:51:22;;;;;;;;;;;17.50;44.80;;;;;;8363881;28;19924;-44
2022/12/01 10:55:23;;;;;;;;;;;17.50;44.80;;;;;;8363386;28;19944;-46
2022/12/01 10:59:26;;;;;;;;;;;17.50;44.80;;;;;;8364188;28;19913;-47
2022/12/01 11:03:28;;;;;;;;;;;17.50;44.80;;;;;;8363693;28;20023;-44
2022/12/01 11:07:32;;;;;;;;;;;17.50;44.80;;;;;;8356127;28;20301;-44
2022/12/01 11:11:37;;;;;;;;;;;17.60;44.80;;;;;;8324491;28;19940;-44
2022/12/01 11:15:39;;;;;;;;;;;17.50;44.70;;;;;;8329973;28;19971;-44
2022/12/01 11:19:39;;;;;;;;;;;17.50;44.70;;;;;;8330906;28;19924;-45
2022/12/01 11:23:47;;;;;;;;;;;17.50;44.80;;;;;;8330488;28;19917;-45
2022/12/01 11:27:53;;;;;;;;;;;17.50;44.80;;;;;;8329824;28;19975;-44
2022/12/01 11:31:53;;;;;;;;;;;17.50;44.90;;;;;;8330315;28;19948;-44
2022/12/01 11:35:54;;;;;;;;;;;17.50;44.90;;;;;;8330489;28;20373;-44
2022/12/01 11:40:03;;;;;;;;;;;17.40;44.80;;;;;;8329803;28;19979;-45
2022/12/01 11:44:04;;;;;;;;;;;17.40;44.80;;;;;;8330026;28;19969;-44
2022/12/01 11:48:17;;;;;;;;;;;17.40;44.80;;;;;;8329710;28;19925;-45
2022/12/01 11:52:23;;;;;;;;;;;17.40;44.90;;;;;;8330781;28;20235;-44
2022/12/01 11:56:27;;;;;;;;;;;17.40;44.80;;;;;;8336274;28;19924;-44
2022/12/01 12:00:42;;;;;;;;;;;17.40;44.90;;;;;;8336739;28;19913;-44
2022/12/01 12:05:04;;;;;;;;;;;17.40;44.90;;;;;;8336365;28;19926;-45
2022/12/01 12:09:21;;;;;;;;;;;17.40;44.90;;;;;;8335887;28;19921;-44
2022/12/01 12:13:40;;;;;;;;;;;17.40;44.90;;;;;;8335442;28;19944;-45
2022/12/01 12:17:50;;;;;;;;;;;17.40;44.90;;;;;;8335737;28;19945;-45
2022/12/01 12:22:02;;;;;;;;;;;17.40;44.90;;;;;;8335096;28;19924;-45
2022/12/01 12:26:16;;;;;;;;;;;17.40;44.90;;;;;;8335730;28;19933;-45
2022/12/01 12:30:22;;;;;;;;;;;17.40;44.90;;;;;;8339177;28;19919;-45
2022/12/01 12:34:34;;;;;;;;;;;17.40;44.90;;;;;;8334946;28;19917;-45
2022/12/01 12:38:44;;;;;;;;;;;17.40;45.00;;;;;;8335175;28;19992;-46
2022/12/01 12:42:45;;;;;;;;;;;17.40;44.90;;;;;;8334713;28;20370;-45
2022/12/01 12:46:51;;;;;;;;;;;17.30;44.90;;;;;;8334654;28;19933;-46
2022/12/01 12:50:59;;;;;;;;;;;17.40;44.90;;;;;;8334928;28;20021;-45
2022/12/01 12:55:10;;;;;;;;;;;17.40;44.80;;;;;;8334479;28;19955;-45
2022/12/01 12:59:21;;;;;;;;;;;17.40;44.80;;;;;;8334735;28;20339;-45
2022/12/01 13:03:35;;;;;;;;;;;17.40;44.80;;;;;;8333304;28;20011;-46
2022/12/01 13:07:55;;;;;;;;;;;17.40;44.90;;;;;;8333791;28;19929;-45
2022/12/01 13:11:58;;;;;;;;;;;17.40;44.90;;;;;;8334337;28;20285;-45
2022/12/01 13:16:01;;;;;;;;;;;17.40;44.90;;;;;;8333640;28;19917;-45
2022/12/01 13:20:02;;;;;;;;;;;17.50;44.80;;;;;;8334107;28;19924;-45
2022/12/01 13:24:03;;;;;;;;;;;17.50;44.80;;;;;;8333844;28;19917;-45
2022/12/01 13:28:05;;;;;;;;;;;17.50;44.80;;;;;;8332850;28;20074;-45
2022/12/01 13:32:06;;;;;;;;;;;17.50;44.70;;;;;;8333771;28;20019;-46
2022/12/01 13:36:08;;;;;;;;;;;17.50;44.70;;;;;;8333274;28;19917;-45
2022/12/01 13:40:20;;;;;;;;;;;17.50;44.60;;;;;;8332825;28;19921;-46
2022/12/01 13:44:26;;;;;;;;;;;17.60;44.60;;;;;;8339114;28;19918;-45
2022/12/01 13:48:35;;;;;;;;;;;17.50;45.10;;;;;;8332947;28;19940;-45
2022/12/01 13:52:45;;;;;;;;;;;17.60;44.60;;;;;;8332830;28;20375;-46
2022/12/01 13:57:03;;;;;;;;;;;17.50;44.50;;;;;;8332695;28;19913;-45
2022/12/01 14:01:19;;;;;;;;;;;17.60;44.60;;;;;;8332348;28;19924;-45
2022/12/01 14:05:23;;;;;;;;;;;17.50;44.60;;;;;;8331295;28;19929;-45
2022/12/01 14:09:31;;;;;;;;;;;17.50;44.60;;;;;;8331779;28;20220;-45
2022/12/01 14:13:42;;;;;;;;;;;17.50;44.60;;;;;;8331833;28;19939;-45
2022/12/01 14:17:43;;;;;;;;;;;17.50;44.70;;;;;;8331605;28;20382;-46
2022/12/01 14:21:45;;;;;;;;;;;17.50;44.70;;;;;;8331298;28;19926;-45
2022/12/01 14:25:57;;;;;;;;;;;17.50;44.70;;;;;;8331676;28;19922;-44
2022/12/01 14:30:17;;;;;;;;;;;17.50;44.70;;;;;;8331660;28;19917;-46
2022/12/01 14:34:28;;;;;;;;;;;17.50;44.70;;;;;;8330899;28;20279;-45
2022/12/01 14:38:28;;;;;;;;;;;17.40;44.70;;;;;;8331555;28;19993;-45
2022/12/01 14:47:08;;;;;;;;;;;17.40;44.70;;;;;;8302347;28;20012;-46
2022/12/01 14:51:21;;;;;;;;;;;17.40;44.70;;;;;;8331176;28;20416;-46
2022/12/01 14:55:23;;;;;;;;;;;17.40;44.70;;;;;;8330507;28;19918;-46
2022/12/01 14:59:25;;;;;;;;;;;17.40;44.80;;;;;;8330956;28;19917;-46
2022/12/01 15:03:27;;;;;;;;;;;17.40;44.80;;;;;;8330924;28;19924;-45
2022/12/01 15:07:28;;;;;;;;;;;17.40;44.90;;;;;;8329921;28;19936;-45
2022/12/01 15:11:29;;;;;;;;;;;17.30;44.90;;;;;;8330801;28;19988;-45
2022/12/01 15:15:29;;;;;;;;;;;17.40;44.90;;;;;;8330325;28;19928;-46
2022/12/01 15:19:39;;;;;;;;;;;17.40;44.90;;;;;;8329863;28;19924;-46
2022/12/01 15:23:53;;;;;;;;;;;17.30;44.90;;;;;;8330104;28;19917;-47
2022/12/01 15:28:10;;;;;;;;;;;17.30;44.90;;;;;;8329549;28;19933;-46
2022/12/01 15:32:13;;;;;;;;;;;17.30;44.90;;;;;;8330143;28;19917;-46
2022/12/01 15:36:14;;;;;;;;;;;17.30;44.80;;;;;;8330190;28;19920;-45
2022/12/01 15:40:18;;;;;;;;;;;17.30;44.90;;;;;;8329566;28;20378;-45
2022/12/01 15:44:20;;;;;;;;;;;17.30;44.80;;;;;;8329849;28;19917;-45
2022/12/01 15:48:25;;;;;;;;;;;17.30;44.80;;;;;;8329763;28;20267;-45
2022/12/01 15:52:26;;;;;;;;;;;17.40;44.80;;;;;;8328620;28;20418;-48
2022/12/01 15:56:28;;;;;;;;;;;17.40;44.90;;;;;;8329468;28;20360;-45
2022/12/01 16:00:29;;;;;;;;;;;17.40;44.90;;;;;;8328724;28;19964;-46
2022/12/01 16:04:34;;;;;;;;;;;17.40;44.70;;;;;;8328199;28;19921;-45
2022/12/01 16:08:34;;;;;;;;;;;17.50;44.80;;;;;;8329030;28;20447;-46
2022/12/01 16:12:37;;;;;;;;;;;17.50;44.70;;;;;;8328830;28;19917;-45
2022/12/01 16:16:42;;;;;;;;;;;17.50;44.60;;;;;;8329311;28;19928;-46
2022/12/01 16:20:43;;;;;;;;;;;17.60;44.60;;;;;;8329026;28;19917;-48
2022/12/01 16:24:45;;;;;;;;;;;17.50;44.50;;;;;;8328548;28;19979;-46
2022/12/01 16:28:46;;;;;;;;;;;17.50;44.50;;;;;;8329188;28;19921;-45
2022/12/01 16:32:48;;;;;;;;;;;17.50;44.50;;;;;;8328764;28;20392;-47
2022/12/01 16:36:48;;;;;;;;;;;17.50;44.50;;;;;;8327437;28;19936;-46
2022/12/01 16:40:50;;;;;;;;;;;17.50;44.50;;;;;;8333745;28;19917;-45
2022/12/01 16:44:51;;;;;;;;;;;17.50;44.60;;;;;;8334854;28;19975;-48
2022/12/01 16:48:51;;;;;;;;;;;17.50;44.50;;;;;;8333870;28;19917;-47
2022/12/01 16:52:52;;;;;;;;;;;17.50;44.60;;;;;;8334741;28;20004;-45
2022/12/01 16:56:52;;;;;;;;;;;17.50;44.60;;;;;;8334821;28;19956;-47
2022/12/01 17:00:53;;;;;;;;;;;17.40;44.60;;;;;;8333562;28;19960;-47
2022/12/01 17:04:53;;;;;;;;;;;17.40;44.60;;;;;;8333737;28;19928;-47
2022/12/01 17:08:54;;;;;;;;;;;17.40;44.60;;;;;;8327349;28;20430;-47
2022/12/01 17:12:54;;;;;;;;;;;17.40;44.70;;;;;;8333099;28;19958;-49
2022/12/01 17:16:55;;;;;;;;;;;17.40;44.70;;;;;;8333979;28;20374;-45
2022/12/01 17:21:00;;;;;;;;;;;17.40;44.80;;;;;;8333768;28;20374;-45
2022/12/01 17:25:01;;;;;;;;;;;17.40;44.80;;;;;;8333197;28;19987;-47
2022/12/01 17:29:02;;;;;;;;;;;17.40;44.80;;;;;;8333685;28;20008;-45
2022/12/01 17:33:03;;;;;;;;;;;17.30;44.80;;;;;;8333613;28;19922;-45
2022/12/01 17:37:03;;;;;;;;;;;17.30;44.80;;;;;;8337965;28;19920;-47
2022/12/01 17:41:04;;;;;;;;;;;17.30;44.80;;;;;;8338351;28;19939;-45
2022/12/01 17:45:04;;;;;;;;;;;17.30;44.90;;;;;;8332682;28;19925;-45
2022/12/01 17:49:08;;;;;;;;;;;17.30;44.90;;;;;;8332221;28;19953;-46
2022/12/01 17:53:08;;;;;;;;;;;17.30;44.90;;;;;;8332544;28;20384;-45
2022/12/01 17:57:09;;;;;;;;;;;17.30;44.90;;;;;;8332811;28;19913;-46
2022/12/01 18:01:14;;;;;;;;;;;17.30;44.90;;;;;;8332065;28;20039;-46
2022/12/01 18:05:15;;;;;;;;;;;17.20;44.90;;;;;;8332232;28;19978;-45
2022/12/01 18:09:15;;;;;;;;;;;17.30;44.90;;;;;;8332274;28;19921;-45
2022/12/01 18:13:16;;;;;;;;;;;17.30;44.80;;;;;;8331588;28;19913;-45
2022/12/01 18:17:16;;;;;;;;;;;17.30;44.80;;;;;;8331972;28;20016;-46
2022/12/01 18:21:18;;;;;;;;;;;17.30;44.80;;;;;;8331789;28;20354;-45
2022/12/01 18:25:18;;;;;;;;;;;17.30;44.90;;;;;;8331052;28;19971;-44
2022/12/01 18:29:27;;;;;;;;;;;17.30;44.80;;;;;;8331570;28;20408;-46
2022/12/01 18:33:27;;;;;;;;;;;17.30;44.90;;;;;;8331595;28;19921;-44
2022/12/01 18:37:28;;;;;;;;;;;17.30;44.80;;;;;;8331425;28;19920;-46
2022/12/01 18:41:29;;;;;;;;;;;17.40;44.90;;;;;;8331423;28;19928;-44
2022/12/01 18:45:29;;;;;;;;;;;17.40;44.90;;;;;;8331104;28;19929;-46
2022/12/01 18:49:30;;;;;;;;;;;17.40;44.60;;;;;;8330509;28;19921;-44
2022/12/01 18:53:31;;;;;;;;;;;17.50;44.60;;;;;;8331084;28;19924;-46
2022/12/01 18:57:31;;;;;;;;;;;17.40;44.60;;;;;;8330935;28;19913;-45
2022/12/01 19:01:33;;;;;;;;;;;17.40;44.50;;;;;;8329672;28;19967;-46
2022/12/01 19:05:37;;;;;;;;;;;17.50;44.50;;;;;;8330607;28;19929;-46
2022/12/01 19:09:38;;;;;;;;;;;17.40;44.50;;;;;;8329918;28;20008;-45
2022/12/01 19:13:38;;;;;;;;;;;17.40;44.50;;;;;;8330251;28;19920;-47
2022/12/01 19:17:39;;;;;;;;;;;17.40;44.60;;;;;;8330510;28;20066;-46
2022/12/01 19:21:39;;;;;;;;;;;17.50;44.60;;;;;;8329696;28;19928;-46
2022/12/01 19:25:40;;;;;;;;;;;17.50;44.60;;;;;;8330356;28;19929;-46
2022/12/01 19:29:40;;;;;;;;;;;17.40;44.60;;;;;;8330201;28;19992;-46
2022/12/01 19:33:41;;;;;;;;;;;17.40;44.60;;;;;;8329953;28;19914;-47
2022/12/01 19:37:41;;;;;;;;;;;17.40;44.50;;;;;;8329979;28;19917;-44
2022/12/01 19:41:42;;;;;;;;;;;17.40;44.60;;;;;;8329832;28;19921;-45
2022/12/01 19:45:42;;;;;;;;;;;17.40;44.60;;;;;;8329394;28;19952;-45
2022/12/01 19:49:42;;;;;;;;;;;17.40;44.50;;;;;;8330189;28;19970;-44
2022/12/01 19:53:43;;;;;;;;;;;17.40;44.60;;;;;;8329647;28;19920;-44
2022/12/01 19:57:43;;;;;;;;;;;17.40;44.60;;;;;;8329500;28;19920;-44
2022/12/01 20:01:44;;;;;;;;;;;17.30;44.60;;;;;;8330052;28;20003;-45
2022/12/01 20:05:44;;;;;;;;;;;17.30;44.80;;;;;;8328921;28;19932;-44
2022/12/01 20:09:45;;;;;;;;;;;17.30;44.70;;;;;;8329704;28;19971;-44
2022/12/01 20:13:46;;;;;;;;;;;17.30;44.70;;;;;;8331757;28;19975;-44
2022/12/01 20:17:48;;;;;;;;;;;17.30;44.80;;;;;;8336191;28;19917;-44
2022/12/01 20:21:49;;;;;;;;;;;17.30;44.80;;;;;;8335161;28;19913;-44
2022/12/01 20:25:50;;;;;;;;;;;17.30;44.80;;;;;;8335762;28;20274;-44
2022/12/01 20:29:50;;;;;;;;;;;17.30;44.80;;;;;;8335745;28;19959;-44
2022/12/01 20:33:52;;;;;;;;;;;17.30;44.80;;;;;;8335103;28;19917;-45
2022/12/01 20:37:52;;;;;;;;;;;17.30;44.70;;;;;;8335675;28;19917;-44
2022/12/01 20:41:53;;;;;;;;;;;17.30;44.70;;;;;;8335240;28;19932;-45
2022/12/01 20:45:53;;;;;;;;;;;17.30;44.70;;;;;;8334461;28;19944;-45
2022/12/01 20:49:54;;;;;;;;;;;17.30;44.60;;;;;;8334727;28;20290;-45
2022/12/01 20:53:54;;;;;;;;;;;17.30;44.70;;;;;;8335434;28;19952;-44
2022/12/01 20:57:54;;;;;;;;;;;17.30;44.70;;;;;;8335219;28;19967;-44
2022/12/01 21:01:55;;;;;;;;;;;17.40;44.70;;;;;;8335909;28;19917;-44
2022/12/01 21:05:57;;;;;;;;;;;17.40;44.70;;;;;;8336989;28;19921;-44
2022/12/01 21:09:58;;;;;;;;;;;17.40;44.70;;;;;;8334159;28;19921;-45
2022/12/01 21:13:58;;;;;;;;;;;17.40;44.70;;;;;;8334510;28;19913;-44
2022/12/01 21:18:17;;;;;;;;;;;17.50;44.50;;;;;;8334150;28;19917;-45
2022/12/01 21:22:18;;;;;;;;;;;17.40;44.50;;;;;;8333469;28;19936;-45
2022/12/01 21:26:19;;;;;;;;;;;17.40;44.40;;;;;;8332748;28;19994;-45
2022/12/01 21:30:21;;;;;;;;;;;17.40;44.40;;;;;;8333532;28;19913;-45
2022/12/01 21:34:22;;;;;;;;;;;17.50;44.50;;;;;;8333079;28;20011;-44
2022/12/01 21:38:23;;;;;;;;;;;17.40;44.40;;;;;;8333753;28;20381;-45
2022/12/01 21:42:25;;;;;;;;;;;17.50;45.00;;;;;;8333286;28;19916;-45
2022/12/01 21:46:26;;;;;;;;;;;17.40;44.40;;;;;;8332657;28;19925;-45
2022/12/01 21:50:26;;;;;;;;;;;17.40;44.40;;;;;;8333060;28;19913;-46
2022/12/01 21:54:27;;;;;;;;;;;17.40;44.40;;;;;;8332761;28;19924;-45
2022/12/01 21:58:34;;;;;;;;;;;17.40;44.50;;;;;;8332599;28;20285;-45
2022/12/01 22:02:47;;;;;;;;;;;17.30;44.50;;;;;;8332804;28;19924;-44
2022/12/01 22:06:50;;;;;;;;;;;17.30;44.50;;;;;;8331854;28;19921;-44
2022/12/01 22:11:02;;;;;;;;;;;17.30;44.60;;;;;;8332388;28;19921;-46
2022/12/01 22:15:12;;;;;;;;;;;17.30;44.60;;;;;;8332408;28;19917;-48
2022/12/01 22:19:15;;;;;;;;;;;17.30;44.60;;;;;;8331973;28;19914;-46
2022/12/01 22:23:17;;;;;;;;;;;17.30;44.70;;;;;;8331946;28;19920;-45
2022/12/01 22:27:23;;;;;;;;;;;17.30;44.70;;;;;;8331750;28;19929;-45
2022/12/01 22:31:24;;;;;;;;;;;17.20;44.70;;;;;;8331433;28;19917;-45
2022/12/01 22:35:26;;;;;;;;;;;17.20;44.60;;;;;;8331453;28;19960;-44
2022/12/01 22:39:30;;;;;;;;;;;17.30;44.70;;;;;;8331879;28;19920;-46
2022/12/01 22:43:30;;;;;;;;;;;17.30;44.60;;;;;;8331050;28;20390;-46
2022/12/01 22:47:31;;;;;;;;;;;17.30;44.60;;;;;;8331123;28;19979;-45
2022/12/01 22:51:51;;;;;;;;;;;17.30;44.60;;;;;;8331132;28;20386;-45
2022/12/01 22:55:53;;;;;;;;;;;17.30;44.60;;;;;;8330788;28;19917;-45
2022/12/01 22:59:54;;;;;;;;;;;17.30;44.50;;;;;;8330878;28;20047;-45
2022/12/01 23:04:18;;;;;;;;;;;17.30;44.50;;;;;;8325677;28;19936;-45
2022/12/01 23:08:20;;;;;;;;;;;17.30;44.50;;;;;;8322416;28;19933;-44
2022/12/01 23:12:25;;;;;;;;;;;17.30;44.40;;;;;;8330630;28;20426;-46
2022/12/01 23:16:25;;;;;;;;;;;17.30;44.40;;;;;;8330091;28;20220;-44
2022/12/01 23:20:29;;;;;;;;;;;17.30;44.90;;;;;;8330695;28;19917;-45
2022/12/01 23:24:30;;;;;;;;;;;17.30;44.50;;;;;;8330701;28;19917;-44
2022/12/01 23:28:31;;;;;;;;;;;17.30;44.40;;;;;;8329848;28;19926;-45
2022/12/01 23:32:32;;;;;;;;;;;17.30;44.40;;;;;;8330428;28;20004;-44
2022/12/01 23:36:32;;;;;;;;;;;17.30;44.40;;;;;;8330116;28;19924;-45
2022/12/01 23:40:33;;;;;;;;;;;17.30;44.40;;;;;;8329594;28;20393;-46
2022/12/01 23:44:37;;;;;;;;;;;17.30;44.50;;;;;;8330478;28;19914;-44